Time;durP1;ratioP1;P1;durP2;ratioP2;P2;SDS_P1;SDS_P2;PMS_P1;PMS_P2;Temp;Humidity;BMP_temperature;BMP_pressure;BME280_temperature;BME280_humidity;BME280_pressure;Samples;Min_cycle;Max_cycle;Signal;HPM_P1;HPM_P2
2023/08/23 00:30:34;;;;;;;6.87;5.87;;;16.80;99.90;;;;;;4561156;30;20444;-84
2023/08/23 00:51:14;;;;;;;8.07;6.60;;;16.80;99.90;;;;;;4570772;30;20338;-83
2023/08/23 01:16:17;;;;;;;7.10;6.00;;;16.90;99.90;;;;;;4531000;30;20671;-82
2023/08/23 02:02:08;;;;;;;9.67;8.27;;;16.20;99.90;;;;;;4510254;30;20806;-84
2023/08/23 02:22:16;;;;;;;10.97;8.00;;;15.90;99.90;;;;;;4569585;30;20872;-81
2023/08/23 02:52:42;;;;;;;12.97;8.83;;;15.80;99.90;;;;;;4608686;30;20247;-86
2023/08/23 03:18:00;;;;;;;10.53;8.87;;;15.80;99.90;;;;;;4520557;30;20240;-87
2023/08/23 03:58:15;;;;;;;12.33;10.13;;;16.10;99.90;;;;;;4782501;29;20578;-83
2023/08/23 04:19:09;;;;;;;17.43;13.17;;;15.90;99.90;;;;;;4687490;29;20495;-83
2023/08/23 04:44:32;;;;;;;18.03;13.70;;;16.20;99.90;;;;;;4641275;30;20212;-84
2023/08/23 05:19:55;;;;;;;42.77;33.90;;;17.40;99.90;;;;;;4679221;29;20242;-84
2023/08/23 05:50:07;;;;;;;17.93;13.90;;;18.40;99.90;;;;;;4710621;29;20253;-84
2023/08/23 06:15:41;;;;;;;14.23;10.23;;;19.50;99.90;;;;;;4528390;30;20713;-84
2023/08/23 06:35:54;;;;;;;12.70;9.33;;;19.80;99.90;;;;;;4527567;30;20281;-84
2023/08/23 07:06:33;;;;;;;10.75;7.63;;;21.20;99.90;;;;;;4711595;29;20207;-86
2023/08/23 08:01:49;;;;;;;5.32;3.60;;;22.30;84.30;;;;;;4889538;28;20722;-84
2023/08/23 08:27:33;;;;;;;4.80;3.70;;;22.30;85.70;;;;;;4858111;28;20214;-89
2023/08/23 08:57:35;;;;;;;3.42;2.20;;;22.30;76.70;;;;;;4861272;28;20581;-87
2023/08/23 09:22:56;;;;;;;4.85;2.88;;;22.60;74.20;;;;;;4833452;29;20239;-91
2023/08/23 09:38:31;;;;;;;7.13;3.05;;;22.80;67.90;;;;;;4800626;29;20434;-88
2023/08/23 10:09:14;;;;;;;3.53;2.50;;;23.10;64.70;;;;;;4764313;29;20264;-85
2023/08/23 10:39:24;;;;;;;4.97;2.78;;;23.20;63.40;;;;;;4732687;29;20916;-88
2023/08/23 11:45:21;;;;;;;3.35;2.03;;;24.10;55.80;;;;;;4689704;30;20694;-86
2023/08/23 12:05:40;;;;;;;2.83;1.95;;;24.20;53.70;;;;;;4752397;29;20232;-91
2023/08/23 12:31:19;;;;;;;2.63;1.60;;;24.30;53.40;;;;;;4818922;29;20234;-89
2023/08/23 13:01:19;;;;;;;1.80;1.70;;;25.50;52.90;;;;;;4878430;28;20243;-85
2023/08/23 13:26:42;;;;;;;4.28;2.40;;;25.40;51.50;;;;;;4865771;28;20256;-86
2023/08/23 14:27:55;;;;;;;2.33;2.00;;;26.00;50.40;;;;;;4809489;29;20198;-87
2023/08/23 14:58:22;;;;;;;3.17;1.80;;;30.10;47.50;;;;;;4719977;29;20247;-85
2023/08/23 15:28:37;;;;;;;3.50;1.60;;;30.20;47.90;;;;;;4718568;29;20559;-85
2023/08/23 16:09:18;;;;;;;1.77;1.50;;;25.40;47.40;;;;;;4839754;29;20234;-86
2023/08/23 16:39:16;;;;;;;2.40;1.77;;;24.50;48.00;;;;;;4880187;28;20578;-87
2023/08/23 17:00:13;;;;;;;1.83;1.42;;;23.80;50.10;;;;;;4779453;29;20224;-87
2023/08/23 17:20:28;;;;;;;2.05;1.80;;;22.70;53.30;;;;;;4705054;29;20234;-86
2023/08/23 17:45:40;;;;;;;4.25;2.05;;;21.40;62.30;;;;;;4681413;30;20216;-85
2023/08/23 18:16:10;;;;;;;4.80;2.10;;;20.40;84.20;;;;;;4738031;29;20561;-86
2023/08/23 18:41:10;;;;;;;3.97;2.73;;;19.80;91.10;;;;;;4691512;30;20519;-85
2023/08/23 19:16:24;;;;;;;5.70;3.47;;;19.40;93.90;;;;;;4943702;28;20492;-89
2023/08/23 19:36:53;;;;;;;4.30;3.40;;;19.30;95.30;;;;;;4833796;29;20219;-86
2023/08/23 20:07:10;;;;;;;4.03;3.50;;;19.00;99.80;;;;;;4750102;29;20628;-86
2023/08/23 20:27:52;;;;;;;5.30;3.90;;;18.90;99.90;;;;;;4832390;29;20604;-84
2023/08/23 20:53:20;;;;;;;4.23;3.50;;;18.60;99.90;;;;;;4733029;29;20199;-85
2023/08/23 21:23:45;;;;;;;5.37;4.10;;;18.40;99.90;;;;;;4812885;29;20401;-86
2023/08/23 21:54:10;;;;;;;4.97;3.70;;;18.20;99.90;;;;;;4821765;29;20281;-86
2023/08/23 22:18:58;;;;;;;4.77;3.83;;;17.90;99.90;;;;;;4688697;30;20257;-87
2023/08/23 22:39:38;;;;;;;4.97;4.10;;;18.00;99.90;;;;;;4700394;29;20254;-86
2023/08/23 23:05:05;;;;;;;6.17;4.37;;;18.10;99.90;;;;;;4693356;30;20212;-84
2023/08/23 23:40:15;;;;;;;7.43;5.37;;;18.00;99.90;;;;;;4625062;30;20687;-84
